Airfield :
LOGIN :

Register | Disclaimer

   EN    FR    IT 

 










Legend :    VFR   Marginal VFR   IFR   Intensive IFR   Very Intensive IFR
Visi :
Ceiling :
>= 8 km
>= 3000ft
5 to 8 km
1000 to 3000 ft
1500m to 5 km
500 to 1000 ft
800 to 1500m
200 to 500 ft
< 800m
< 200 ft
Symbols :   Thunderstorms  Fog  Heavy snow  Heavy precipitations  Wind > 20 kt
SIGMETs :     Misc.  Thunderstorms  Icing  Turbulence  Mountain Waves  Volcanic Ashes







- Airport Elevation : 160 ft
- IATA code : LRT
- Download approach charts


LFRH - Lorient Lann Bihoue

CURRENT METAR :
  • 210300Z AUTO 03006KT 6000 NSC 10/09 Q1014 NOSIG

EXPIRED METARs :
  • 210230Z AUTO 03004KT 6000 NSC 09/09 Q1014 NOSIG
  • 210200Z AUTO 03005KT 6000 NSC 09/09 Q1014 NOSIG
  • 210130Z AUTO 04006KT 7000 NSC 10/08 Q1014 NOSIG
  • 210100Z AUTO 04006KT 8000 NSC 10/08 Q1015 NOSIG
  • 210030Z AUTO 04006KT CAVOK 10/08 Q1015 NOSIG
  • 210000Z AUTO 03006KT CAVOK 11/08 Q1015 NOSIG

TAF TAF LFRH
Valid from the 21 at 00:00 until the 22 at 00:00 UTC


202300Z 2100/2124 02010KT CAVOK
BECMG 2112/2114 25010KT
BECMG 2119/2122 04010KT
No reported NOTAMs for that airfield.



MET'MAP, your aeronautical weather chart ! - Copyright ORBIFLY December 2007 - Disclaimer

ORBIFLY MET'MAP TEAM :

Programming & Development : Alexandra Zaïnal
Concept & Development : Baudouin d'Aumeries
Co-Development & Prog : Marc-Olivier Méhu
Technical & hardware support : Manuel Goepfert

Contact : metmap@orbifly.com




SOURCES & CREDITS :

   NOAA